Time;durP1;ratioP1;P1;durP2;ratioP2;P2;SDS_P1;SDS_P2;PMS_P1;PMS_P2;Temp;Humidity;BMP_temperature;BMP_pressure;BME280_temperature;BME280_humidity;BME280_pressure;Samples;Min_cycle;Max_cycle;Signal;HPM_P1;HPM_P2
2024/02/28 00:03:50;;;;;;;1999.90;999.90;;;;;;;9.32;100.00;95078.78;10400698;28;20037;-86
2024/02/28 00:08:52;;;;;;;1999.90;999.90;;;;;;;9.21;100.00;95077.94;10406668;28;20283;-77
2024/02/28 00:13:53;;;;;;;1999.90;999.90;;;;;;;9.02;100.00;95086.31;10404219;28;20072;-86
2024/02/28 00:18:54;;;;;;;1999.90;999.90;;;;;;;8.92;100.00;95085.41;10402244;28;20124;-78
2024/02/28 00:23:54;;;;;;;1999.90;999.90;;;;;;;8.91;100.00;95091.88;10399359;28;20422;-77
2024/02/28 00:28:55;;;;;;;1999.90;999.90;;;;;;;8.95;100.00;95096.47;10402607;28;20033;-82
2024/02/28 00:33:55;;;;;;;1999.90;999.90;;;;;;;9.01;100.00;95087.38;10401178;28;20060;-78
2024/02/28 00:38:55;;;;;;;1999.90;999.90;;;;;;;9.04;100.00;95086.06;10400339;28;20526;-80
2024/02/28 00:43:56;;;;;;;1999.90;999.90;;;;;;;9.04;100.00;95086.06;10399586;28;20072;-82
2024/02/28 00:48:56;;;;;;;1999.90;999.90;;;;;;;9.00;100.00;95082.28;10403279;28;20033;-79
2024/02/28 00:53:57;;;;;;;1999.90;999.90;;;;;;;9.04;100.00;95088.75;10392881;28;20471;-81
2024/02/28 00:58:57;;;;;;;1999.90;999.90;;;;;;;8.95;100.00;95088.41;10399834;28;20049;-78
2024/02/28 01:03:57;;;;;;;1999.90;999.90;;;;;;;8.96;100.00;95092.72;10399067;28;20048;-78
2024/02/28 01:08:58;;;;;;;1999.90;999.90;;;;;;;8.92;100.00;95091.59;10397749;28;20033;-76
2024/02/28 01:13:58;;;;;;;1999.90;999.90;;;;;;;8.89;100.00;95089.44;10403684;28;20024;-77
2024/02/28 01:18:58;;;;;;;1999.90;999.90;;;;;;;8.81;100.00;95093.38;10434741;28;20338;-79
2024/02/28 01:23:59;;;;;;;1999.90;999.90;;;;;;;8.74;100.00;95092.78;10415016;28;20029;-81
2024/02/28 01:28:59;;;;;;;1999.90;999.90;;;;;;;8.68;100.00;95097.28;10409128;28;20272;-79
2024/02/28 01:33:59;;;;;;;1999.90;999.90;;;;;;;8.60;100.00;95103.06;10413454;28;20724;-77
2024/02/28 01:39:00;;;;;;;1999.90;999.90;;;;;;;8.58;100.00;95110.53;10422984;28;20705;-82
2024/02/28 01:44:00;;;;;;;1999.90;999.90;;;;;;;8.65;100.00;95105.00;10405580;28;20449;-77
2024/02/28 01:49:01;;;;;;;1999.90;999.90;;;;;;;8.63;100.00;95107.13;10405081;28;20805;-76
2024/02/28 01:54:03;;;;;;;1999.90;999.90;;;;;;;8.53;100.00;95113.19;10406636;28;20025;-82
2024/02/28 01:59:03;;;;;;;1999.90;999.90;;;;;;;8.44;100.00;95120.81;10391643;28;20056;-81
2024/02/28 02:04:04;;;;;;;1999.90;999.90;;;;;;;8.32;100.00;95117.47;10387189;28;20043;-77
2024/02/28 02:09:05;;;;;;;1999.90;999.90;;;;;;;8.33;100.00;95117.19;10409928;28;20026;-81
2024/02/28 02:14:06;;;;;;;1999.90;999.90;;;;;;;8.33;100.00;95122.56;10407081;28;20522;-84
2024/02/28 02:19:10;;;;;;;1999.90;999.90;;;;;;;8.32;100.00;95118.25;10410166;28;20430;-81
2024/02/28 02:24:11;;;;;;;1999.90;999.90;;;;;;;8.23;100.00;95110.91;10405352;28;20032;-80
2024/02/28 02:29:12;;;;;;;1999.90;999.90;;;;;;;8.19;100.00;95111.41;10405764;28;20026;-80
2024/02/28 02:34:12;;;;;;;1999.90;999.90;;;;;;;8.16;100.00;95114.59;10402961;28;20022;-77
2024/02/28 02:39:13;;;;;;;1999.90;999.90;;;;;;;8.04;100.00;95114.69;10403537;28;20056;-77
2024/02/28 02:44:13;;;;;;;1999.90;999.90;;;;;;;7.99;100.00;95109.25;10405709;28;20439;-81
2024/02/28 02:49:16;;;;;;;1999.90;999.90;;;;;;;7.92;100.00;95111.31;10385953;28;20280;-79
2024/02/28 02:54:16;;;;;;;1999.90;999.90;;;;;;;7.98;100.00;95113.00;10402594;28;20017;-76
2024/02/28 02:59:17;;;;;;;1999.90;999.90;;;;;;;7.94;100.00;95116.41;10403393;28;20057;-77
2024/02/28 03:04:19;;;;;;;1999.90;999.90;;;;;;;7.96;100.00;95117.78;10402221;28;20415;-77
2024/02/28 03:09:20;;;;;;;1999.90;999.90;;;;;;;7.84;100.00;95117.91;10386524;28;20036;-81
2024/02/28 03:14:22;;;;;;;1999.90;999.90;;;;;;;7.89;100.00;95109.13;10401578;28;20065;-78
2024/02/28 03:19:22;;;;;;;1999.90;999.90;;;;;;;7.88;100.00;95104.81;10400940;28;20025;-80
2024/02/28 03:24:23;;;;;;;1999.90;999.90;;;;;;;7.93;100.00;95112.13;10400933;28;20412;-79
2024/02/28 03:29:23;;;;;;;1999.90;999.90;;;;;;;7.86;100.00;95121.13;10400763;28;20103;-78
2024/02/28 03:34:23;;;;;;;1999.90;999.90;;;;;;;7.84;100.00;95125.09;10401503;28;20029;-78
2024/02/28 03:39:24;;;;;;;1999.90;999.90;;;;;;;7.92;100.00;95129.25;10402056;28;20037;-77
2024/02/28 03:44:25;;;;;;;1999.90;999.90;;;;;;;7.84;100.00;95135.81;10403464;28;20029;-78
2024/02/28 03:49:26;;;;;;;1999.90;999.90;;;;;;;7.75;100.00;95135.44;10404666;28;20260;-82
2024/02/28 03:54:26;;;;;;;1999.90;999.90;;;;;;;7.67;100.00;95134.00;10404428;28;20025;-86
2024/02/28 03:59:26;;;;;;;1999.90;999.90;;;;;;;7.64;100.00;95142.47;10400633;28;20085;-80
2024/02/28 04:04:27;;;;;;;1999.90;999.90;;;;;;;7.56;100.00;95134.06;10412772;28;20040;-76
2024/02/28 04:09:27;;;;;;;1999.90;999.90;;;;;;;7.48;100.00;95129.91;10397870;28;20083;-83
2024/02/28 04:14:29;;;;;;;1999.90;999.90;;;;;;;7.47;100.00;95133.66;10420923;28;20306;-87
2024/02/28 04:19:33;;;;;;;1999.90;999.90;;;;;;;7.44;100.00;95124.25;10401021;28;20415;-79
2024/02/28 04:24:34;;;;;;;1999.90;999.90;;;;;;;7.55;100.00;95127.09;10399186;28;20052;-78
2024/02/28 04:29:34;;;;;;;1999.90;999.90;;;;;;;7.60;100.00;95127.16;10402873;28;20079;-78
2024/02/28 04:34:36;;;;;;;1999.90;999.90;;;;;;;7.62;100.00;95122.38;10398842;28;20299;-83
2024/02/28 04:39:36;;;;;;;1999.90;999.90;;;;;;;7.62;100.00;95125.88;10408727;28;20017;-79
2024/02/28 04:44:37;;;;;;;1999.90;999.90;;;;;;;7.62;100.00;95125.88;10399266;28;20444;-83
2024/02/28 04:49:38;;;;;;;1999.90;999.90;;;;;;;7.58;100.00;95134.66;10394712;28;20029;-79
2024/02/28 04:54:40;;;;;;;1999.90;999.90;;;;;;;7.41;100.00;95134.63;10397953;28;20280;-80
2024/02/28 04:59:41;;;;;;;1999.90;999.90;;;;;;;7.42;100.00;95138.94;10397600;28;20370;-76
2024/02/28 05:04:42;;;;;;;1999.90;999.90;;;;;;;7.33;100.00;95139.31;10374391;28;20161;-82
2024/02/28 05:09:43;;;;;;;1999.90;999.90;;;;;;;7.27;100.00;95151.00;10354934;28;20029;-78
2024/02/28 05:14:43;;;;;;;1999.90;999.90;;;;;;;7.33;100.00;95160.72;10387958;28;20072;-80
2024/02/28 05:19:44;;;;;;;1999.90;999.90;;;;;;;7.38;100.00;95164.53;10393616;28;20033;-78
2024/02/28 05:24:47;;;;;;;1999.90;999.90;;;;;;;7.25;100.00;95160.31;10395948;28;20147;-79
2024/02/28 05:29:47;;;;;;;1999.90;999.90;;;;;;;7.32;100.00;95169.78;10371483;28;20096;-77
2024/02/28 05:34:48;;;;;;;1999.90;999.90;;;;;;;7.45;100.00;95186.56;10377136;28;20084;-76
2024/02/28 05:39:48;;;;;;;1999.90;999.90;;;;;;;7.65;100.00;95186.91;10372259;28;20030;-78
2024/02/28 05:44:49;;;;;;;1999.90;999.90;;;;;;;7.63;100.00;95196.22;10372858;28;20280;-82
2024/02/28 05:49:49;;;;;;;1999.90;999.90;;;;;;;7.81;100.00;95197.84;10371935;28;21021;-78
2024/02/28 05:54:50;;;;;;;1999.90;999.90;;;;;;;7.81;100.00;95198.66;10372458;28;20048;-77
2024/02/28 05:59:51;;;;;;;1999.90;999.90;;;;;;;7.75;100.00;95207.66;10372175;28;20351;-81
2024/02/28 06:04:52;;;;;;;1999.90;999.90;;;;;;;8.13;100.00;95216.00;10378026;28;20355;-76
2024/02/28 06:09:53;;;;;;;1999.90;999.90;;;;;;;8.72;100.00;95216.28;10382445;28;20084;-78
2024/02/28 06:14:53;;;;;;;1999.90;999.90;;;;;;;9.18;100.00;95221.38;10402045;28;20183;-77
2024/02/28 06:19:53;;;;;;;1999.90;999.90;;;;;;;9.37;100.00;95218.34;10400513;28;20033;-78
2024/02/28 06:24:54;;;;;;;1999.90;999.90;;;;;;;9.76;100.00;95226.19;10399578;28;20272;-77
2024/02/28 06:29:54;;;;;;;1999.90;999.90;;;;;;;9.81;100.00;95225.41;10398726;28;20134;-76
2024/02/28 06:34:54;;;;;;;1999.90;999.90;;;;;;;10.35;100.00;95224.50;10395929;28;20446;-77
2024/02/28 06:39:55;;;;;;;1999.90;999.90;;;;;;;11.33;100.00;95225.75;10392358;28;20079;-77
2024/02/28 06:44:55;;;;;;;1999.90;999.90;;;;;;;12.09;100.00;95220.72;10388277;28;20797;-78
2024/02/28 06:49:56;;;;;;;1999.90;999.90;;;;;;;12.58;100.00;95224.69;10371734;28;20572;-79
2024/02/28 06:54:56;;;;;;;1999.90;999.90;;;;;;;12.75;100.00;95216.28;10376475;28;20025;-77
2024/02/28 06:59:56;;;;;;;1999.90;999.90;;;;;;;12.78;100.00;95221.94;10384470;28;20308;-78
2024/02/28 07:04:57;;;;;;;1999.90;999.90;;;;;;;14.16;100.00;95216.84;10399387;28;20033;-82
2024/02/28 07:09:57;;;;;;;1999.90;999.90;;;;;;;15.51;87.76;95216.94;10399827;28;20518;-77
2024/02/28 07:14:58;;;;;;;1999.90;999.90;;;;;;;16.64;77.07;95202.69;10401861;28;20296;-77
2024/02/28 07:19:58;;;;;;;1999.90;999.90;;;;;;;16.77;73.13;95206.53;10401226;28;20033;-83
2024/02/28 07:24:59;;;;;;;1999.90;999.90;;;;;;;16.66;70.83;95211.34;10382397;28;20022;-76
2024/02/28 07:30:01;;;;;;;1999.90;999.90;;;;;;;15.93;77.55;95216.38;10400346;28;20292;-82
2024/02/28 07:35:02;;;;;;;1999.90;999.90;;;;;;;16.46;78.77;95218.75;10415941;28;20067;-75
2024/02/28 07:40:03;;;;;;;1999.90;999.90;;;;;;;17.20;67.31;95209.75;10399300;28;20551;-77
2024/02/28 07:45:03;;;;;;;1999.90;999.90;;;;;;;17.92;62.05;95218.28;10400973;28;20025;-83
2024/02/28 07:50:05;;;;;;;1999.90;999.90;;;;;;;18.05;61.28;95211.19;10397820;28;20060;-77
2024/02/28 07:55:06;;;;;;;1999.90;999.90;;;;;;;19.12;55.73;95199.41;10398393;28;20033;-78
2024/02/28 08:00:07;;;;;;;1999.90;999.90;;;;;;;18.21;58.65;95217.88;10398272;28;20045;-80
2024/02/28 08:05:08;;;;;;;1999.90;999.90;;;;;;;17.96;62.94;95207.59;10399277;28;20458;-75
2024/02/28 08:10:10;;;;;;;1999.90;999.90;;;;;;;18.22;60.38;95200.44;10399552;28;20029;-79
2024/02/28 08:15:11;;;;;;;1999.90;999.90;;;;;;;17.75;64.62;95203.41;10396929;28;20132;-80
2024/02/28 08:20:12;;;;;;;1999.90;999.90;;;;;;;17.69;67.47;95196.47;10399075;28;20466;-77
2024/02/28 08:25:12;;;;;;;1999.90;999.90;;;;;;;18.10;61.18;95189.31;10398363;28;20074;-77
2024/02/28 08:30:13;;;;;;;1999.90;999.90;;;;;;;18.91;56.71;95198.41;10381686;28;20492;-77
2024/02/28 08:35:13;;;;;;;1999.90;999.90;;;;;;;18.94;55.28;95195.84;10398187;28;20021;-77
2024/02/28 08:40:14;;;;;;;1999.90;999.90;;;;;;;18.93;55.10;95196.94;10398149;28;20025;-78
2024/02/28 08:45:14;;;;;;;1999.90;999.90;;;;;;;19.71;52.50;95186.53;10398188;28;20021;-77
2024/02/28 08:50:15;;;;;;;1999.90;999.90;;;;;;;19.67;50.91;95171.94;10398279;28;20025;-77
2024/02/28 08:55:18;;;;;;;1999.90;999.90;;;;;;;19.69;49.73;95166.94;10397651;28;20701;-76
2024/02/28 09:00:19;;;;;;;1999.90;999.90;;;;;;;19.58;51.40;95177.41;10396848;28;20049;-79
2024/02/28 09:05:19;;;;;;;1999.90;999.90;;;;;;;18.83;53.22;95177.34;10397784;28;20014;-77
2024/02/28 09:10:23;;;;;;;1999.90;999.90;;;;;;;18.50;55.91;95185.84;10398351;28;20471;-78
2024/02/28 09:15:25;;;;;;;1999.90;999.90;;;;;;;18.12;57.34;95176.19;10398002;28;20057;-76
2024/02/28 09:20:25;;;;;;;1999.90;999.90;;;;;;;18.06;61.08;95185.59;10397200;28;20034;-75
2024/02/28 09:25:25;;;;;;;1999.90;999.90;;;;;;;17.81;60.73;95184.28;10397258;28;20025;-80
2024/02/28 09:30:26;;;;;;;1999.90;999.90;;;;;;;17.62;61.13;95187.16;10397289;28;20037;-80
2024/02/28 09:35:27;;;;;;;1999.90;999.90;;;;;;;17.79;60.59;95170.16;10399848;28;20370;-79
2024/02/28 09:40:27;;;;;;;1999.90;999.90;;;;;;;17.82;60.29;95169.53;10405187;28;20874;-77
2024/02/28 09:45:30;;;;;;;1999.90;999.90;;;;;;;17.57;58.99;95178.00;10405399;28;20267;-75
2024/02/28 09:50:30;;;;;;;1999.90;999.90;;;;;;;17.74;60.59;95163.72;10404965;28;20029;-81
2024/02/28 09:55:32;;;;;;;1999.90;999.90;;;;;;;18.44;58.87;95155.25;10406927;28;20035;-78
2024/02/28 10:00:34;;;;;;;1999.90;999.90;;;;;;;18.60;55.45;95150.19;10404541;28;20053;-77
2024/02/28 10:05:35;;;;;;;1999.90;999.90;;;;;;;18.75;52.36;95152.50;10388020;28;20080;-77
2024/02/28 10:10:38;;;;;;;1999.90;999.90;;;;;;;17.91;55.86;95156.84;10404023;28;20120;-76
2024/02/28 10:15:39;;;;;;;1999.90;999.90;;;;;;;17.34;60.69;95151.88;10403553;28;20461;-77
2024/02/28 10:20:39;;;;;;;1999.90;999.90;;;;;;;17.42;56.40;95148.44;10403216;28;20484;-78
2024/02/28 10:25:45;;;;;;;1999.90;999.90;;;;;;;17.56;56.20;95137.53;10403470;28;20033;-79
2024/02/28 10:30:45;;;;;;;1999.90;999.90;;;;;;;18.08;54.23;95132.50;10402946;28;20812;-78
2024/02/28 10:35:51;;;;;;;1999.90;999.90;;;;;;;18.74;53.56;95122.84;10403866;28;20041;-80
2024/02/28 10:40:53;;;;;;;1999.90;999.90;;;;;;;20.39;46.98;95110.38;10418777;28;20037;-84
2024/02/28 10:46:01;;;;;;;1999.90;999.90;;;;;;;22.30;41.87;95094.91;10401520;28;20944;-82
2024/02/28 10:51:05;;;;;;;1999.90;999.90;;;;;;;25.83;35.18;95081.69;10420004;28;20114;-80
2024/02/28 10:56:07;;;;;;;1999.90;999.90;;;;;;;27.11;31.30;95079.63;10403942;28;20018;-80
2024/02/28 11:01:08;;;;;;;1999.90;999.90;;;;;;;29.66;28.31;95069.53;10405173;28;20538;-79
2024/02/28 11:06:21;;;;;;;1999.90;999.90;;;;;;;29.37;26.73;95057.50;10403601;28;20021;-79
2024/02/28 11:11:22;;;;;;;1999.90;999.90;;;;;;;27.37;29.33;95063.47;10400986;28;20033;-77
2024/02/28 11:16:33;;;;;;;1999.90;999.90;;;;;;;28.72;27.99;95046.00;10401182;28;20025;-81
2024/02/28 11:21:35;;;;;;;1999.90;999.90;;;;;;;27.58;29.23;95040.84;10403585;28;20397;-79
2024/02/28 11:26:35;;;;;;;1999.90;999.90;;;;;;;25.77;30.90;95045.38;10405000;28;20037;-77
2024/02/28 11:31:35;;;;;;;1999.90;999.90;;;;;;;23.64;33.30;95040.31;10403036;28;20033;-81
2024/02/28 11:36:36;;;;;;;1999.90;999.90;;;;;;;23.11;34.45;95036.78;10400980;28;20112;-74
2024/02/28 11:41:36;;;;;;;1999.90;999.90;;;;;;;23.20;34.42;95030.06;10402870;28;20495;-77
2024/02/28 11:46:37;;;;;;;1999.90;999.90;;;;;;;22.05;35.98;95037.38;10401906;28;20039;-77
2024/02/28 11:51:37;;;;;;;1999.90;999.90;;;;;;;21.04;37.67;95028.28;10401200;28;20037;-80
2024/02/28 11:56:38;;;;;;;1999.90;999.90;;;;;;;20.26;38.81;95027.59;10399337;28;20743;-78
2024/02/28 12:01:42;;;;;;;1999.90;999.90;;;;;;;19.66;40.79;95028.53;10400240;28;20041;-75
2024/02/28 12:06:42;;;;;;;1999.90;999.90;;;;;;;19.23;42.82;95020.09;10400354;28;20067;-77
2024/02/28 12:11:43;;;;;;;1999.90;999.90;;;;;;;18.71;48.30;95020.03;10399328;28;20017;-77
2024/02/28 12:16:44;;;;;;;1999.90;999.90;;;;;;;18.30;48.32;95011.13;10399099;28;20037;-78
2024/02/28 12:21:44;;;;;;;1999.90;999.90;;;;;;;17.82;52.24;95009.13;10400924;28;20032;-78
2024/02/28 12:26:44;;;;;;;1999.90;999.90;;;;;;;17.64;56.41;95000.09;10398658;28;20445;-82
2024/02/28 12:31:45;;;;;;;1999.90;999.90;;;;;;;18.17;55.40;94991.09;10398446;28;20276;-81
2024/02/28 12:36:47;;;;;;;1999.90;999.90;;;;;;;18.20;53.51;94995.88;10398324;28;20391;-77
2024/02/28 12:41:48;;;;;;;1999.90;999.90;;;;;;;18.10;54.98;94986.09;10398896;28;20380;-78
2024/02/28 12:46:48;;;;;;;1999.90;999.90;;;;;;;17.87;56.43;94982.59;10398473;28;20021;-76
2024/02/28 12:51:51;;;;;;;1999.90;999.90;;;;;;;17.91;60.44;94982.81;10398030;28;20041;-77
2024/02/28 12:56:51;;;;;;;1999.90;999.90;;;;;;;18.40;55.37;94983.63;10398401;28;20052;-77
2024/02/28 13:01:51;;;;;;;1999.90;999.90;;;;;;;18.33;53.44;94974.31;10397935;28;20034;-78
2024/02/28 13:06:53;;;;;;;1999.90;999.90;;;;;;;18.16;52.27;94978.59;10398021;28;20452;-80
2024/02/28 13:11:53;;;;;;;1999.90;999.90;;;;;;;18.31;52.22;94982.00;10402914;28;20325;-81
2024/02/28 13:16:54;;;;;;;1999.90;999.90;;;;;;;18.28;50.04;94980.72;10389250;28;20079;-76
2024/02/28 13:21:55;;;;;;;1999.90;999.90;;;;;;;18.21;50.13;94975.75;10405629;28;20149;-76
2024/02/28 13:26:56;;;;;;;1999.90;999.90;;;;;;;18.21;50.58;94980.34;10406182;28;20099;-77
2024/02/28 13:31:56;;;;;;;1999.90;999.90;;;;;;;18.20;52.07;94982.28;10407173;28;20032;-76
2024/02/28 13:36:58;;;;;;;1999.90;999.90;;;;;;;18.04;50.43;94981.94;10405334;28;20654;-77
2024/02/28 13:41:59;;;;;;;1999.90;999.90;;;;;;;17.74;55.74;94981.59;10405067;28;20758;-77
2024/02/28 13:46:59;;;;;;;1999.90;999.90;;;;;;;17.34;57.32;94983.44;10388892;28;20032;-77
2024/02/28 13:52:00;;;;;;;1999.90;999.90;;;;;;;17.11;61.37;94974.50;10405374;28;20041;-75
2024/02/28 13:57:01;;;;;;;1999.90;999.90;;;;;;;16.73;65.61;94972.91;10404190;28;20327;-77
2024/02/28 14:02:01;;;;;;;1999.90;999.90;;;;;;;16.77;63.19;94978.53;10404778;28;20116;-77
2024/02/28 14:07:02;;;;;;;1999.90;999.90;;;;;;;16.60;64.22;94969.13;10404389;28;20025;-75
2024/02/28 14:12:03;;;;;;;1999.90;999.90;;;;;;;16.62;66.31;94968.81;10387922;28;20171;-76
2024/02/28 14:17:04;;;;;;;1999.90;999.90;;;;;;;16.54;68.22;94982.00;10403826;28;20099;-77
2024/02/28 14:22:04;;;;;;;1999.90;999.90;;;;;;;16.53;69.20;94988.53;10404217;28;20044;-82
2024/02/28 14:27:05;;;;;;;1999.90;999.90;;;;;;;16.58;66.86;94987.63;10404005;28;20211;-81
2024/02/28 14:32:06;;;;;;;1999.90;999.90;;;;;;;16.45;69.41;94991.97;10403469;28;20025;-74
2024/02/28 14:37:10;;;;;;;1999.90;999.90;;;;;;;16.57;69.12;94977.88;10404177;28;20464;-77
2024/02/28 14:42:11;;;;;;;1999.90;999.90;;;;;;;16.85;66.13;94975.09;10409379;28;20032;-82
2024/02/28 14:47:12;;;;;;;1999.90;999.90;;;;;;;16.85;63.26;94985.94;10407733;28;20022;-79
2024/02/28 14:52:13;;;;;;;1999.90;999.90;;;;;;;16.52;63.52;94975.25;10403592;28;20463;-78
2024/02/28 14:57:15;;;;;;;1999.90;999.90;;;;;;;16.61;67.04;94967.22;10401408;28;20053;-77
2024/02/28 15:02:17;;;;;;;1999.90;999.90;;;;;;;16.86;68.21;94965.84;10402340;28;20036;-81
2024/02/28 15:07:18;;;;;;;1999.90;999.90;;;;;;;16.72;68.23;94971.31;10386060;28;20041;-74
2024/02/28 15:12:18;;;;;;;1999.90;999.90;;;;;;;16.54;66.19;94973.84;10402087;28;20133;-74
2024/02/28 15:17:18;;;;;;;1999.90;999.90;;;;;;;16.52;63.87;94970.66;10401261;28;20086;-76
2024/02/28 15:22:19;;;;;;;1999.90;999.90;;;;;;;16.42;65.91;94983.63;10377028;28;20083;-77
2024/02/28 15:27:19;;;;;;;1999.90;999.90;;;;;;;16.19;69.91;94984.38;10377082;28;20022;-82
2024/02/28 15:32:21;;;;;;;1999.90;999.90;;;;;;;16.34;70.33;94979.72;10377166;28;20041;-81
2024/02/28 15:37:22;;;;;;;1999.90;999.90;;;;;;;16.42;70.79;94989.84;10374678;28;20073;-77
2024/02/28 15:42:22;;;;;;;1999.90;999.90;;;;;;;16.42;71.19;94989.06;10375430;28;20021;-80
2024/02/28 15:47:23;;;;;;;1999.90;999.90;;;;;;;16.39;72.02;94990.47;10393518;28;20075;-85
2024/02/28 15:52:23;;;;;;;1999.90;999.90;;;;;;;16.21;70.16;95012.00;10400580;28;20108;-75
2024/02/28 15:57:24;;;;;;;1999.90;999.90;;;;;;;16.01;73.25;95010.47;10401022;28;20583;-76
2024/02/28 16:02:24;;;;;;;1999.90;999.90;;;;;;;15.97;75.68;95020.31;10400577;28;20133;-77
2024/02/28 16:07:25;;;;;;;1999.90;999.90;;;;;;;15.79;77.99;95022.00;10400290;28;20120;-77
2024/02/28 16:12:27;;;;;;;1999.90;999.90;;;;;;;15.79;79.05;95024.69;10396097;28;20484;-76
2024/02/28 16:17:30;;;;;;;1999.90;999.90;;;;;;;15.44;82.21;95021.50;10401228;28;20080;-76
2024/02/28 16:22:31;;;;;;;1999.90;999.90;;;;;;;15.38;82.88;95022.69;10389348;28;20027;-77
2024/02/28 16:27:31;;;;;;;1999.90;999.90;;;;;;;15.12;85.99;95038.53;10405424;28;20059;-76
2024/02/28 16:32:31;;;;;;;1999.90;999.90;;;;;;;15.04;87.74;95040.00;10404712;28;20026;-77
2024/02/28 16:37:32;;;;;;;1999.90;999.90;;;;;;;14.81;87.80;95045.19;10424256;28;20484;-79
2024/02/28 16:42:35;;;;;;;1999.90;999.90;;;;;;;14.61;89.94;95053.56;10418626;28;20033;-78
2024/02/28 16:47:42;;;;;;;1999.90;999.90;;;;;;;14.48;88.24;95055.91;10418715;28;20272;-76
2024/02/28 16:52:42;;;;;;;1999.90;999.90;;;;;;;14.46;88.84;95063.47;10399876;28;20132;-77
2024/02/28 16:57:44;;;;;;;1999.90;999.90;;;;;;;14.46;86.62;95060.78;10398438;28;20049;-77
2024/02/28 17:02:44;;;;;;;1999.90;999.90;;;;;;;14.50;85.24;95059.09;10399251;28;20045;-80
2024/02/28 17:07:45;;;;;;;1999.90;999.90;;;;;;;14.53;82.76;95069.34;10398770;28;20033;-77
2024/02/28 17:12:45;;;;;;;1999.90;999.90;;;;;;;14.30;80.89;95073.69;10396262;28;20026;-76
2024/02/28 17:17:45;;;;;;;1999.90;999.90;;;;;;;14.07;83.51;95072.56;10398346;28;20040;-81
2024/02/28 17:22:46;;;;;;;1999.90;999.90;;;;;;;13.99;85.20;95078.59;10394463;28;20060;-78
2024/02/28 17:27:46;;;;;;;1999.90;999.90;;;;;;;14.14;84.43;95078.44;10398775;28;20038;-75
2024/02/28 17:32:48;;;;;;;1999.90;999.90;;;;;;;14.16;84.29;95078.97;10393832;28;20782;-75
2024/02/28 17:37:49;;;;;;;1999.90;999.90;;;;;;;14.13;83.80;95097.66;10379786;28;20327;-76
2024/02/28 17:42:49;;;;;;;1999.90;999.90;;;;;;;14.17;83.16;95098.69;10395635;28;20044;-76
2024/02/28 17:47:50;;;;;;;1999.90;999.90;;;;;;;14.04;84.17;95086.66;10396398;28;20032;-74
2024/02/28 17:52:50;;;;;;;1999.90;999.90;;;;;;;14.04;85.16;95093.94;10394186;28;20527;-75
2024/02/28 17:57:50;;;;;;;1999.90;999.90;;;;;;;14.21;84.54;95091.63;10397039;28;20072;-75
2024/02/28 18:02:52;;;;;;;1999.90;999.90;;;;;;;14.23;84.06;95085.94;10403574;28;20051;-73
2024/02/28 18:07:53;;;;;;;1999.90;999.90;;;;;;;14.09;85.47;95091.22;10405397;28;20025;-78
2024/02/28 18:12:54;;;;;;;1999.90;999.90;;;;;;;13.94;88.05;95101.09;10405328;28;20029;-75
2024/02/28 18:17:55;;;;;;;1999.90;999.90;;;;;;;13.93;88.73;95094.06;10371042;28;20367;-75
2024/02/28 18:22:55;;;;;;;1999.90;999.90;;;;;;;13.96;88.71;95095.41;10380425;28;20403;-75
2024/02/28 18:27:56;;;;;;;1999.90;999.90;;;;;;;14.02;89.61;95095.06;10403490;28;20028;-78
2024/02/28 18:32:58;;;;;;;1999.90;999.90;;;;;;;14.05;88.84;95093.69;10420598;28;20051;-75
2024/02/28 18:37:59;;;;;;;1999.90;999.90;;;;;;;13.75;91.00;95100.19;10404890;28;20032;-77
2024/02/28 18:43:00;;;;;;;1999.90;999.90;;;;;;;13.70;93.39;95100.22;10403804;28;20041;-77
2024/02/28 18:48:01;;;;;;;1999.90;999.90;;;;;;;13.71;93.07;95112.66;10403134;28;20029;-80
2024/02/28 18:53:03;;;;;;;1999.90;999.90;;;;;;;13.61;93.58;95119.75;10402917;28;20060;-80
2024/02/28 18:58:04;;;;;;;1999.90;999.90;;;;;;;13.55;94.04;95122.75;10386604;28;20057;-80
2024/02/28 19:03:05;;;;;;;1999.90;999.90;;;;;;;13.67;94.11;95120.50;10409022;28;20029;-82
2024/02/28 19:08:05;;;;;;;1999.90;999.90;;;;;;;13.71;93.46;95118.84;10402672;28;20430;-82
2024/02/28 19:13:06;;;;;;;1999.90;999.90;;;;;;;13.72;93.64;95112.38;10403216;28;20029;-79
2024/02/28 19:18:06;;;;;;;1999.90;999.90;;;;;;;13.57;93.82;95128.69;10393709;28;20029;-80
2024/02/28 19:23:06;;;;;;;1999.90;999.90;;;;;;;13.53;95.24;95133.03;10402594;28;20040;-80
2024/02/28 19:28:08;;;;;;;1999.90;999.90;;;;;;;13.49;95.79;95130.91;10388819;28;20276;-84
2024/02/28 19:33:08;;;;;;;1999.90;999.90;;;;;;;13.41;98.28;95128.81;10404425;28;20068;-81
2024/02/28 19:38:09;;;;;;;1999.90;999.90;;;;;;;13.07;98.83;95132.22;10403908;28;20032;-84
2024/02/28 19:43:10;;;;;;;1999.90;999.90;;;;;;;12.85;100.00;95148.81;10408958;28;20272;-79
2024/02/28 19:48:11;;;;;;;1999.90;999.90;;;;;;;12.76;100.00;95148.56;10406721;28;20021;-81
2024/02/28 19:53:11;;;;;;;1999.90;999.90;;;;;;;12.67;100.00;95144.84;10405174;28;20045;-79
2024/02/28 19:58:11;;;;;;;1999.90;999.90;;;;;;;12.60;100.00;95142.44;10402375;28;20103;-80
2024/02/28 20:03:12;;;;;;;1999.90;999.90;;;;;;;12.55;100.00;95157.84;10401453;28;20757;-80
2024/02/28 20:08:12;;;;;;;1999.90;999.90;;;;;;;12.49;100.00;95159.75;10400925;28;20144;-81
2024/02/28 20:13:13;;;;;;;1999.90;999.90;;;;;;;12.43;100.00;95156.25;10401141;28;20028;-78
2024/02/28 20:18:13;;;;;;;1999.90;999.90;;;;;;;12.30;100.00;95146.84;10401510;28;20486;-78
2024/02/28 20:23:14;;;;;;;1999.90;999.90;;;;;;;12.16;100.00;95150.41;10401894;28;20026;-79
2024/02/28 20:28:14;;;;;;;1999.90;999.90;;;;;;;12.04;100.00;95164.16;10401467;28;20296;-77
2024/02/28 20:33:14;;;;;;;1999.90;999.90;;;;;;;11.96;100.00;95160.13;10404907;28;20419;-81
2024/02/28 20:38:16;;;;;;;1999.90;999.90;;;;;;;11.89;100.00;95159.53;10401094;28;20029;-80
2024/02/28 20:43:16;;;;;;;1999.90;999.90;;;;;;;11.96;100.00;95158.22;10394893;28;20029;-80
2024/02/28 20:48:16;;;;;;;1999.90;999.90;;;;;;;11.73;100.00;95164.13;10400988;28;20559;-79
2024/02/28 20:53:19;;;;;;;1999.90;999.90;;;;;;;11.74;100.00;95160.38;10400113;28;20414;-77
2024/02/28 20:58:19;;;;;;;1999.90;999.90;;;;;;;11.57;100.00;95158.75;10400645;28;20300;-76
2024/02/28 21:03:20;;;;;;;1999.90;999.90;;;;;;;11.37;100.00;95161.41;10400569;28;20036;-77
2024/02/28 21:08:20;;;;;;;1999.90;999.90;;;;;;;11.21;100.00;95156.03;10383109;28;20272;-77
2024/02/28 21:13:20;;;;;;;1999.90;999.90;;;;;;;11.06;100.00;95146.03;10398423;28;20271;-76
2024/02/28 21:18:21;;;;;;;1999.90;999.90;;;;;;;10.97;100.00;95144.13;10398776;28;20488;-77
2024/02/28 21:23:21;;;;;;;1999.90;999.90;;;;;;;10.78;100.00;95145.41;10400307;28;20567;-85
2024/02/28 21:28:21;;;;;;;1999.90;999.90;;;;;;;10.73;100.00;95141.91;10398574;28;20329;-82
2024/02/28 21:33:22;;;;;;;1999.90;999.90;;;;;;;10.71;100.00;95150.22;10403627;28;20022;-78
2024/02/28 21:38:23;;;;;;;1999.90;999.90;;;;;;;10.69;100.00;95157.78;10407244;28;20025;-78
2024/02/28 21:43:23;;;;;;;1999.90;999.90;;;;;;;10.56;100.00;95155.56;10407762;28;20039;-77
2024/02/28 21:48:24;;;;;;;1999.90;999.90;;;;;;;10.57;100.00;95157.19;10406103;28;20044;-78
2024/02/28 21:53:24;;;;;;;1999.90;999.90;;;;;;;10.60;100.00;95162.84;10407715;28;20044;-77
2024/02/28 21:58:25;;;;;;;1999.90;999.90;;;;;;;10.51;100.00;95163.63;10406433;28;20300;-83